Time;durP1;ratioP1;P1;durP2;ratioP2;P2;SDS_P1;SDS_P2;PMS_P1;PMS_P2;Temp;Humidity;BMP_temperature;BMP_pressure;BME280_temperature;BME280_humidity;BME280_pressure;Samples;Min_cycle;Max_cycle;Signal;HPM_P1;HPM_P2
2022/12/23 00:01:06;;;;;;;101.63;92.90;;;10.00;99.90;;;;;;5078618;28;20040;-67
2022/12/23 00:03:32;;;;;;;101.50;92.30;;;10.00;99.90;;;;;;5095362;28;20564;-67
2022/12/23 00:05:58;;;;;;;101.60;92.57;;;10.00;99.90;;;;;;5096720;28;20360;-67
2022/12/23 00:08:26;;;;;;;99.88;90.68;;;10.00;99.90;;;;;;5096608;28;20115;-67
2022/12/23 00:10:55;;;;;;;99.63;89.70;;;10.00;99.90;;;;;;5078588;28;20043;-67
2022/12/23 00:16:11;;;;;;;95.60;86.82;;;10.10;99.90;;;;;;5096323;28;20081;-67
2022/12/23 00:18:37;;;;;;;96.93;87.53;;;10.00;99.90;;;;;;5096553;28;20097;-67
2022/12/23 00:21:09;;;;;;;90.72;82.28;;;10.00;99.90;;;;;;5096680;28;20324;-67
2022/12/23 00:23:37;;;;;;;93.95;85.22;;;10.00;99.90;;;;;;5096470;28;20048;-67
2022/12/23 00:26:04;;;;;;;114.13;89.40;;;10.10;99.90;;;;;;5096097;28;20127;-67
2022/12/23 00:28:30;;;;;;;97.88;88.63;;;10.10;99.90;;;;;;5096038;28;20075;-68
2022/12/23 00:31:04;;;;;;;100.53;90.85;;;10.10;99.90;;;;;;5096240;28;20481;-67
2022/12/23 00:33:33;;;;;;;98.28;89.45;;;10.10;99.90;;;;;;5095181;28;20119;-67
2022/12/23 00:35:59;;;;;;;101.00;91.90;;;10.00;99.90;;;;;;5095101;28;20055;-67
2022/12/23 00:43:57;;;;;;;107.68;97.00;;;9.80;99.90;;;;;;5095994;28;20409;-67
2022/12/23 00:46:23;;;;;;;108.25;97.32;;;9.80;99.90;;;;;;5095335;28;20060;-67
2022/12/23 00:51:33;;;;;;;108.47;97.07;;;9.80;99.90;;;;;;5096224;28;20097;-67
2022/12/23 00:53:59;;;;;;;104.30;93.70;;;9.80;99.90;;;;;;5096252;28;20039;-67
2022/12/23 00:56:25;;;;;;;104.35;93.43;;;9.80;99.90;;;;;;5094849;28;20089;-67
2022/12/23 00:58:50;;;;;;;121.88;96.95;;;9.90;99.90;;;;;;5095705;28;20059;-67
2022/12/23 01:06:45;;;;;;;102.43;91.70;;;10.00;99.90;;;;;;5098647;28;20040;-67
2022/12/23 01:09:11;;;;;;;97.20;86.75;;;10.10;99.90;;;;;;5099567;28;20093;-68
2022/12/23 01:11:37;;;;;;;146.18;95.30;;;10.10;99.90;;;;;;5098551;28;20036;-67
2022/12/23 01:14:02;;;;;;;215.02;101.97;;;10.10;99.90;;;;;;5099374;28;20047;-67
2022/12/23 01:16:28;;;;;;;115.13;95.25;;;10.10;99.90;;;;;;5098289;28;20040;-68
2022/12/23 01:18:54;;;;;;;103.88;93.40;;;10.10;99.90;;;;;;5099676;28;20135;-67
2022/12/23 01:21:19;;;;;;;103.70;93.50;;;10.10;99.90;;;;;;5098285;28;20051;-68
2022/12/23 01:23:45;;;;;;;101.28;91.43;;;10.10;99.90;;;;;;5098114;28;20044;-67
2022/12/23 01:26:11;;;;;;;102.28;91.28;;;10.10;99.90;;;;;;5099030;28;20128;-67
2022/12/23 01:28:37;;;;;;;96.82;87.78;;;10.20;99.90;;;;;;5098953;28;20080;-67
2022/12/23 01:31:04;;;;;;;97.57;88.43;;;10.20;99.90;;;;;;5099272;28;20043;-68
2022/12/23 01:33:31;;;;;;;96.22;86.15;;;10.10;99.90;;;;;;5099107;28;20084;-67
2022/12/23 01:36:06;;;;;;;95.93;85.85;;;10.20;99.90;;;;;;5098017;28;20094;-68
2022/12/23 01:38:33;;;;;;;98.28;85.85;;;10.10;99.90;;;;;;5099311;28;20032;-67
2022/12/23 01:40:58;;;;;;;97.13;86.88;;;10.10;99.90;;;;;;5098941;28;20036;-67
2022/12/23 01:43:47;;;;;;;100.18;89.53;;;10.10;99.90;;;;;;5098860;28;20033;-67
2022/12/23 01:46:13;;;;;;;97.68;87.80;;;10.20;99.90;;;;;;5099006;28;20417;-67
2022/12/23 01:48:42;;;;;;;102.13;90.90;;;10.10;99.90;;;;;;5098948;28;20040;-67
2022/12/23 01:51:14;;;;;;;97.72;87.88;;;10.10;99.90;;;;;;5097866;28;20111;-67
2022/12/23 01:53:45;;;;;;;99.57;88.93;;;10.10;99.90;;;;;;5098995;28;20329;-67
2022/12/23 01:56:14;;;;;;;101.72;91.28;;;10.10;99.90;;;;;;5098611;28;20391;-67
2022/12/23 01:58:52;;;;;;;177.80;92.40;;;10.10;99.90;;;;;;5098451;28;20333;-67
2022/12/23 02:04:06;;;;;;;100.32;88.03;;;10.10;99.90;;;;;;5098534;28;20055;-67
2022/12/23 02:09:32;;;;;;;146.32;95.28;;;10.10;99.90;;;;;;5098762;28;20105;-67
2022/12/23 02:12:22;;;;;;;119.28;97.78;;;10.10;99.90;;;;;;5098542;28;20036;-67
2022/12/23 02:18:14;;;;;;;110.47;99.72;;;10.10;99.90;;;;;;5098023;28;20333;-67
2022/12/23 02:21:02;;;;;;;115.72;100.65;;;10.00;99.90;;;;;;5098477;28;20352;-67
2022/12/23 02:23:51;;;;;;;148.38;105.63;;;10.00;99.90;;;;;;5098007;28;20333;-67
2022/12/23 02:26:44;;;;;;;151.35;107.35;;;10.00;99.90;;;;;;5097466;28;20055;-67
2022/12/23 02:29:25;;;;;;;111.35;100.95;;;10.00;99.90;;;;;;5097632;28;20040;-67
2022/12/23 02:32:39;;;;;;;113.95;103.25;;;10.00;99.90;;;;;;5097863;28;20040;-67
2022/12/23 02:35:29;;;;;;;116.18;104.32;;;10.00;99.90;;;;;;5088847;28;20055;-67
2022/12/23 02:38:08;;;;;;;165.60;102.60;;;10.00;99.90;;;;;;5097710;28;20043;-68
2022/12/23 02:40:42;;;;;;;262.67;108.63;;;10.00;99.90;;;;;;5098115;28;20050;-67
2022/12/23 02:43:17;;;;;;;235.77;109.90;;;10.00;99.90;;;;;;5097646;28;20040;-67
2022/12/23 02:46:05;;;;;;;143.35;105.63;;;10.00;99.90;;;;;;5097598;28;20421;-67
2022/12/23 02:48:45;;;;;;;167.98;106.28;;;10.00;99.90;;;;;;5097555;28;20055;-68
2022/12/23 02:51:14;;;;;;;116.03;103.82;;;10.00;99.90;;;;;;5097904;28;20114;-67
2022/12/23 02:53:46;;;;;;;115.95;103.55;;;10.00;99.90;;;;;;5097667;28;20178;-67
2022/12/23 02:56:14;;;;;;;119.72;104.18;;;9.90;99.90;;;;;;5097468;28;20051;-67
2022/12/23 02:58:45;;;;;;;116.22;104.72;;;9.90;99.90;;;;;;5096956;28;20493;-67
2022/12/23 03:01:13;;;;;;;304.83;116.57;;;9.90;99.90;;;;;;5097310;28;20421;-67
2022/12/23 03:03:41;;;;;;;174.43;111.07;;;9.90;99.90;;;;;;5097507;28;20088;-67
2022/12/23 03:06:22;;;;;;;196.07;112.75;;;9.80;99.90;;;;;;5097557;28;20048;-67
2022/12/23 03:08:49;;;;;;;332.58;116.80;;;9.90;99.90;;;;;;5096986;28;20032;-67
2022/12/23 03:11:16;;;;;;;205.15;116.18;;;9.90;99.90;;;;;;5097065;28;20035;-67
2022/12/23 03:14:09;;;;;;;187.73;117.95;;;9.90;99.90;;;;;;5095905;28;20047;-67
2022/12/23 03:16:50;;;;;;;162.45;119.40;;;9.80;99.90;;;;;;5097123;28;20313;-68
2022/12/23 03:19:45;;;;;;;227.82;124.85;;;9.70;99.90;;;;;;5096880;28;20050;-67
2022/12/23 03:22:26;;;;;;;321.33;126.55;;;9.70;99.90;;;;;;5097036;28;20036;-67
2022/12/23 03:24:57;;;;;;;292.52;124.00;;;9.80;99.90;;;;;;5096855;28;20468;-67
2022/12/23 03:27:35;;;;;;;279.15;124.13;;;9.90;99.90;;;;;;5096722;28;20562;-67
2022/12/23 03:30:13;;;;;;;333.73;127.78;;;9.80;99.90;;;;;;5095622;28;20044;-67
2022/12/23 03:33:00;;;;;;;175.60;119.68;;;9.80;99.90;;;;;;5096023;28;20047;-67
2022/12/23 03:35:31;;;;;;;138.25;115.75;;;9.70;99.90;;;;;;5097199;28;20040;-67
2022/12/23 03:37:58;;;;;;;305.92;124.07;;;9.70;99.90;;;;;;5095703;28;20433;-67
2022/12/23 03:40:37;;;;;;;182.35;118.32;;;9.70;99.90;;;;;;5095712;28;20047;-68
2022/12/23 03:43:17;;;;;;;152.98;116.47;;;9.70;99.90;;;;;;5096856;28;20083;-67
2022/12/23 03:45:48;;;;;;;357.08;122.82;;;9.70;99.90;;;;;;5096783;28;20067;-67
2022/12/23 03:48:31;;;;;;;239.20;119.82;;;9.70;99.90;;;;;;5096659;28;20039;-67
2022/12/23 03:51:03;;;;;;;331.65;122.07;;;9.60;99.90;;;;;;5096415;28;20075;-67
2022/12/23 03:53:39;;;;;;;211.43;116.70;;;9.70;99.90;;;;;;5096798;28;20044;-67
2022/12/23 03:56:15;;;;;;;271.40;120.47;;;9.70;99.90;;;;;;5096686;28;20073;-67
2022/12/23 03:58:43;;;;;;;269.05;119.70;;;9.70;99.90;;;;;;5096251;28;20387;-68
2022/12/23 04:01:17;;;;;;;225.05;120.78;;;9.70;99.90;;;;;;5096674;28;20328;-67
2022/12/23 04:04:24;;;;;;;269.75;122.05;;;9.70;99.90;;;;;;5096224;28;20048;-67
2022/12/23 04:06:53;;;;;;;402.20;125.85;;;9.80;99.90;;;;;;5078814;28;20077;-67
2022/12/23 04:09:23;;;;;;;298.25;122.78;;;9.60;99.90;;;;;;5096396;28;20036;-67
2022/12/23 04:11:49;;;;;;;202.65;113.55;;;9.50;99.90;;;;;;5096251;28;20040;-67
2022/12/23 04:14:19;;;;;;;217.45;120.00;;;9.50;99.90;;;;;;5095472;28;20036;-67
2022/12/23 04:16:46;;;;;;;207.88;114.45;;;9.60;99.90;;;;;;5096545;28;20097;-67
2022/12/23 04:19:12;;;;;;;280.52;121.07;;;9.60;99.90;;;;;;5096503;28;20044;-67
2022/12/23 04:21:37;;;;;;;173.88;116.53;;;9.70;99.90;;;;;;5096290;28;20048;-67
2022/12/23 04:24:03;;;;;;;211.82;118.72;;;9.70;99.90;;;;;;5095215;28;20040;-67
2022/12/23 04:26:29;;;;;;;371.20;123.47;;;9.80;99.90;;;;;;5096322;28;20051;-67
2022/12/23 04:28:55;;;;;;;303.02;121.30;;;9.70;99.90;;;;;;5095704;28;20387;-67
2022/12/23 04:31:20;;;;;;;163.60;116.70;;;9.60;99.90;;;;;;5096414;28;20032;-67
2022/12/23 04:33:46;;;;;;;283.88;120.00;;;9.60;99.90;;;;;;5096377;28;20405;-67
2022/12/23 04:36:12;;;;;;;301.10;124.78;;;9.70;99.90;;;;;;5096107;28;20341;-67
2022/12/23 04:38:38;;;;;;;170.40;113.78;;;9.70;99.90;;;;;;5096306;28;20040;-67
2022/12/23 04:41:03;;;;;;;308.00;121.65;;;9.60;99.90;;;;;;5099812;28;20050;-67
2022/12/23 04:43:29;;;;;;;471.30;123.15;;;9.70;99.90;;;;;;5098848;28;20039;-67
2022/12/23 04:45:55;;;;;;;407.27;122.88;;;9.60;99.90;;;;;;5100061;28;20073;-67
2022/12/23 04:48:20;;;;;;;139.68;107.78;;;9.60;99.90;;;;;;5100079;28;20068;-67
2022/12/23 04:50:46;;;;;;;244.52;115.20;;;9.60;99.90;;;;;;5099797;28;20074;-67
2022/12/23 04:53:12;;;;;;;390.38;120.72;;;9.60;99.90;;;;;;5100037;28;20043;-67
2022/12/23 04:55:37;;;;;;;405.30;120.13;;;9.60;99.90;;;;;;5099909;28;20036;-67
2022/12/23 04:58:03;;;;;;;123.40;105.63;;;9.50;99.90;;;;;;5092162;28;20389;-68
2022/12/23 05:00:29;;;;;;;595.05;126.05;;;9.50;99.90;;;;;;5097598;28;20075;-68
2022/12/23 05:02:54;;;;;;;468.55;124.18;;;9.50;99.90;;;;;;5099385;28;20035;-67
2022/12/23 05:05:20;;;;;;;352.20;116.07;;;9.60;99.90;;;;;;5098810;28;20396;-67
2022/12/23 05:07:49;;;;;;;123.20;105.40;;;9.50;99.90;;;;;;5098466;28;20492;-67
2022/12/23 05:10:15;;;;;;;143.73;108.03;;;9.40;99.90;;;;;;5099466;28;20107;-68
2022/12/23 05:12:40;;;;;;;340.05;113.30;;;9.40;99.90;;;;;;5099693;28;20119;-67
2022/12/23 05:15:07;;;;;;;451.50;126.03;;;9.50;99.90;;;;;;5099693;28;20062;-67
2022/12/23 05:17:32;;;;;;;276.65;118.15;;;9.50;99.90;;;;;;5099655;28;20115;-67
2022/12/23 05:19:58;;;;;;;320.00;118.65;;;9.50;99.90;;;;;;5099608;28;20402;-67
2022/12/23 05:22:24;;;;;;;494.60;129.93;;;9.50;99.90;;;;;;5099302;28;20322;-67
2022/12/23 05:24:49;;;;;;;183.98;118.55;;;9.60;99.90;;;;;;5097956;28;20364;-67
2022/12/23 05:27:15;;;;;;;531.92;130.98;;;9.50;99.90;;;;;;5098551;28;20039;-67
2022/12/23 05:29:41;;;;;;;231.82;117.20;;;9.40;99.90;;;;;;5098850;28;20043;-67
2022/12/23 05:32:06;;;;;;;137.98;115.88;;;9.30;99.90;;;;;;5099371;28;20468;-67
2022/12/23 05:34:32;;;;;;;129.38;115.10;;;9.40;99.90;;;;;;5099093;28;20036;-67
2022/12/23 05:36:58;;;;;;;128.73;107.60;;;9.50;99.90;;;;;;5098915;28;20119;-67
2022/12/23 05:39:23;;;;;;;133.10;112.63;;;9.60;99.90;;;;;;5098919;28;20043;-68
2022/12/23 05:41:49;;;;;;;272.77;115.53;;;9.60;99.90;;;;;;5097811;28;20048;-67
2022/12/23 05:44:15;;;;;;;211.60;112.15;;;9.70;99.90;;;;;;5099069;28;20044;-67
2022/12/23 05:46:40;;;;;;;183.95;114.18;;;9.70;99.90;;;;;;5097905;28;20036;-67
2022/12/23 05:49:06;;;;;;;196.75;113.30;;;9.60;99.90;;;;;;5097870;28;20118;-67
2022/12/23 05:51:32;;;;;;;153.07;104.40;;;9.60;99.90;;;;;;5098631;28;20109;-67
2022/12/23 05:53:58;;;;;;;312.50;116.00;;;9.50;99.90;;;;;;5098550;28;20104;-67
2022/12/23 05:56:23;;;;;;;271.38;117.20;;;9.60;99.90;;;;;;5097894;28;20032;-67
2022/12/23 05:58:49;;;;;;;348.30;119.13;;;9.40;99.90;;;;;;5098159;28;20051;-67
2022/12/23 06:01:14;;;;;;;319.73;119.85;;;9.30;99.90;;;;;;5098632;28;20044;-67
2022/12/23 06:03:40;;;;;;;364.42;121.63;;;9.30;99.90;;;;;;5098362;28;20047;-67
2022/12/23 06:06:06;;;;;;;125.47;109.32;;;9.30;99.90;;;;;;5097462;28;20040;-67
2022/12/23 06:08:32;;;;;;;148.50;108.13;;;9.30;99.90;;;;;;5098459;28;20085;-67
2022/12/23 06:10:58;;;;;;;111.03;100.15;;;9.30;99.90;;;;;;5098294;28;20043;-67
2022/12/23 06:13:24;;;;;;;113.00;100.95;;;9.40;99.90;;;;;;5098293;28;20105;-67
2022/12/23 06:15:50;;;;;;;118.18;106.47;;;9.50;99.90;;;;;;5098424;28;20334;-67
2022/12/23 06:18:16;;;;;;;118.68;102.93;;;9.50;99.90;;;;;;5097172;28;20040;-67
2022/12/23 06:20:45;;;;;;;100.45;90.93;;;9.50;99.90;;;;;;5098503;28;20040;-67
2022/12/23 06:23:11;;;;;;;93.72;84.30;;;9.50;99.90;;;;;;5097364;28;20043;-71
2022/12/23 06:25:37;;;;;;;88.55;79.90;;;9.40;99.90;;;;;;5098066;28;20040;-67
2022/12/23 06:28:03;;;;;;;578.30;89.25;;;9.30;99.90;;;;;;5098264;28;20448;-67
2022/12/23 06:30:28;;;;;;;399.35;82.38;;;9.30;99.90;;;;;;5097664;28;20526;-67
2022/12/23 06:32:54;;;;;;;423.90;83.53;;;9.20;99.90;;;;;;5098229;28;20040;-67
2022/12/23 06:35:20;;;;;;;104.80;79.47;;;9.20;99.90;;;;;;5097119;28;20055;-67
2022/12/23 06:37:45;;;;;;;84.57;77.03;;;9.20;99.90;;;;;;5097920;28;20367;-67
2022/12/23 06:40:11;;;;;;;244.05;79.38;;;9.20;99.90;;;;;;5098026;28;20043;-67
2022/12/23 06:42:37;;;;;;;294.65;81.22;;;9.20;99.90;;;;;;5097904;28;20043;-67
2022/12/23 06:45:03;;;;;;;83.18;75.18;;;9.20;99.90;;;;;;5097913;28;20329;-67
2022/12/23 06:47:29;;;;;;;87.88;79.55;;;9.20;99.90;;;;;;5130849;27;20040;-67
2022/12/23 06:49:54;;;;;;;98.15;74.93;;;9.30;99.90;;;;;;5097928;28;20058;-67
2022/12/23 06:52:21;;;;;;;78.13;70.93;;;9.30;99.90;;;;;;5097832;28;20397;-68
2022/12/23 06:54:47;;;;;;;78.40;71.43;;;9.40;99.90;;;;;;5096892;28;20047;-67
2022/12/23 06:57:13;;;;;;;89.00;74.88;;;9.40;99.90;;;;;;5097821;28;20035;-67
2022/12/23 06:59:39;;;;;;;78.20;71.72;;;9.40;99.90;;;;;;5097269;28;20429;-67
2022/12/23 07:02:05;;;;;;;118.80;75.65;;;9.30;99.90;;;;;;5095917;28;20047;-67
2022/12/23 07:04:31;;;;;;;75.00;68.35;;;9.30;99.90;;;;;;5096348;28;20052;-67
2022/12/23 07:06:57;;;;;;;120.40;67.10;;;9.30;99.90;;;;;;5097270;28;20111;-67
2022/12/23 07:09:23;;;;;;;130.25;72.30;;;9.30;99.90;;;;;;5097505;28;20040;-67
2022/12/23 07:11:48;;;;;;;77.85;68.80;;;9.20;99.90;;;;;;5097627;28;20062;-67
2022/12/23 07:14:14;;;;;;;234.38;79.15;;;9.30;99.90;;;;;;5097341;28;20050;-67
2022/12/23 07:16:40;;;;;;;411.80;88.85;;;9.40;99.90;;;;;;5097405;28;20085;-67
2022/12/23 07:19:05;;;;;;;415.10;95.25;;;9.40;99.90;;;;;;5097233;28;20097;-67
2022/12/23 07:21:31;;;;;;;252.98;82.90;;;9.40;99.90;;;;;;5096964;28;20048;-67
2022/12/23 07:23:57;;;;;;;158.82;87.22;;;9.40;99.90;;;;;;5097024;28;20044;-67
2022/12/23 07:26:22;;;;;;;362.42;90.88;;;9.40;99.90;;;;;;5097208;28;20082;-67
2022/12/23 07:28:48;;;;;;;246.68;94.65;;;9.50;99.90;;;;;;5095483;28;20068;-67
2022/12/23 07:31:14;;;;;;;119.53;96.60;;;9.40;99.90;;;;;;5097068;28;20089;-67
2022/12/23 07:33:40;;;;;;;109.60;95.10;;;9.30;99.90;;;;;;5096964;28;20036;-67
2022/12/23 07:36:06;;;;;;;192.95;97.78;;;9.40;99.90;;;;;;5095707;28;20078;-68
2022/12/23 07:38:31;;;;;;;133.75;95.32;;;9.40;99.90;;;;;;5095478;28;20040;-67
2022/12/23 07:40:57;;;;;;;130.90;92.90;;;9.40;99.90;;;;;;5095789;28;20092;-67
2022/12/23 07:43:23;;;;;;;95.40;86.78;;;9.40;99.90;;;;;;5096760;28;20044;-67
2022/12/23 07:45:48;;;;;;;99.82;90.45;;;9.50;99.90;;;;;;5096684;28;20127;-67
2022/12/23 07:48:14;;;;;;;166.00;89.03;;;9.50;99.90;;;;;;5096975;28;20319;-67
2022/12/23 07:50:40;;;;;;;87.10;78.10;;;9.50;99.90;;;;;;5095848;28;20039;-67
2022/12/23 07:53:05;;;;;;;84.18;76.18;;;9.40;99.90;;;;;;5096521;28;20131;-67
2022/12/23 07:55:31;;;;;;;112.93;80.80;;;9.40;99.90;;;;;;5095878;28;20050;-67
2022/12/23 07:57:57;;;;;;;85.55;78.75;;;9.30;99.90;;;;;;5095626;28;20040;-67
2022/12/23 08:00:22;;;;;;;158.60;81.18;;;9.30;99.90;;;;;;5096102;28;20036;-67
2022/12/23 08:02:48;;;;;;;82.05;74.68;;;9.30;99.90;;;;;;5095858;28;20051;-67
2022/12/23 08:05:14;;;;;;;77.38;71.60;;;9.30;99.90;;;;;;5095717;28;20051;-67
2022/12/23 08:07:40;;;;;;;146.43;74.13;;;9.30;99.90;;;;;;5096604;28;20036;-67
2022/12/23 08:10:07;;;;;;;131.82;78.80;;;9.20;99.90;;;;;;5095597;28;20332;-67
2022/12/23 08:12:33;;;;;;;78.07;70.90;;;9.30;99.90;;;;;;5096894;28;20043;-67
2022/12/23 08:14:59;;;;;;;82.22;75.03;;;9.40;99.90;;;;;;5098706;28;20039;-66
2022/12/23 08:17:28;;;;;;;80.32;72.97;;;9.40;99.90;;;;;;5100688;28;20032;-65
2022/12/23 08:19:55;;;;;;;77.25;69.75;;;9.40;99.90;;;;;;5099553;28;20047;-67
2022/12/23 08:22:21;;;;;;;73.82;67.20;;;9.40;99.90;;;;;;5100573;28;20047;-65
2022/12/23 08:24:48;;;;;;;79.88;72.93;;;9.50;99.90;;;;;;5100434;28;20052;-66
2022/12/23 08:27:15;;;;;;;77.15;70.38;;;9.50;99.90;;;;;;5100585;28;20114;-66
2022/12/23 08:29:41;;;;;;;78.85;71.53;;;9.50;99.90;;;;;;5100139;28;20036;-68
2022/12/23 08:32:07;;;;;;;75.85;69.20;;;9.60;99.90;;;;;;5100669;28;20071;-68
2022/12/23 08:34:33;;;;;;;75.95;69.05;;;9.50;99.90;;;;;;5100555;28;20329;-68
2022/12/23 08:36:59;;;;;;;80.70;73.05;;;9.60;99.90;;;;;;5100443;28;20035;-67
2022/12/23 08:39:25;;;;;;;76.78;70.63;;;9.60;99.90;;;;;;5100537;28;20302;-67
2022/12/23 08:41:51;;;;;;;87.60;71.43;;;9.50;99.90;;;;;;5100380;28;20064;-66
2022/12/23 08:44:20;;;;;;;82.45;73.75;;;9.40;99.90;;;;;;5100221;28;20429;-66
2022/12/23 08:46:46;;;;;;;95.53;73.97;;;9.50;99.90;;;;;;5100419;28;20090;-66
2022/12/23 08:49:12;;;;;;;100.32;73.30;;;9.50;99.90;;;;;;5100069;28;20079;-65
2022/12/23 08:51:38;;;;;;;79.25;70.57;;;9.50;99.90;;;;;;5100239;28;20035;-65
2022/12/23 08:54:04;;;;;;;144.75;74.88;;;9.50;99.90;;;;;;5100565;28;20051;-69
2022/12/23 08:56:33;;;;;;;135.88;72.30;;;9.40;99.90;;;;;;5082036;28;20405;-67
2022/12/23 08:58:59;;;;;;;114.28;73.13;;;9.40;99.90;;;;;;5099496;28;20092;-68
2022/12/23 09:01:28;;;;;;;100.65;71.35;;;9.40;99.90;;;;;;5100127;28;20032;-68
2022/12/23 09:03:55;;;;;;;165.43;73.53;;;9.40;99.90;;;;;;5098739;28;20345;-66
2022/12/23 09:06:27;;;;;;;79.32;72.90;;;9.50;99.90;;;;;;5099747;28;20055;-66
2022/12/23 09:08:54;;;;;;;76.13;68.07;;;9.50;99.90;;;;;;5099731;28;20425;-66
2022/12/23 09:11:25;;;;;;;171.52;78.45;;;9.60;99.90;;;;;;5099721;28;20035;-66
2022/12/23 09:13:50;;;;;;;122.15;77.53;;;9.60;99.90;;;;;;5099902;28;20077;-66
2022/12/23 09:16:17;;;;;;;160.40;81.65;;;9.60;99.90;;;;;;5099453;28;20113;-67
2022/12/23 09:18:42;;;;;;;244.55;83.57;;;9.60;99.90;;;;;;5099720;28;20091;-66
2022/12/23 09:21:17;;;;;;;90.13;82.70;;;9.60;99.90;;;;;;5099643;28;20397;-66
2022/12/23 09:23:42;;;;;;;162.65;82.85;;;9.60;99.90;;;;;;5099843;28;20043;-66
2022/12/23 09:26:09;;;;;;;288.15;90.53;;;9.50;99.90;;;;;;5097849;28;20052;-66
2022/12/23 09:28:35;;;;;;;90.97;83.63;;;9.50;99.90;;;;;;5099431;28;20458;-66
2022/12/23 09:31:10;;;;;;;92.13;85.15;;;9.40;99.90;;;;;;5097791;28;20118;-67
2022/12/23 09:33:36;;;;;;;178.82;89.70;;;9.50;99.90;;;;;;5099363;28;20065;-68
2022/12/23 09:36:03;;;;;;;93.95;86.50;;;9.60;99.90;;;;;;5099184;28;20451;-68
2022/12/23 09:38:29;;;;;;;91.00;82.15;;;9.70;99.90;;;;;;5098445;28;20042;-67
2022/12/23 09:41:19;;;;;;;89.10;80.47;;;9.60;99.90;;;;;;5098302;28;20119;-67
2022/12/23 09:44:11;;;;;;;93.10;83.57;;;9.60;99.90;;;;;;5098856;28;20417;-67
2022/12/23 09:46:50;;;;;;;95.18;86.45;;;9.50;99.90;;;;;;5098999;28;20425;-68
2022/12/23 09:49:17;;;;;;;91.07;83.70;;;9.50;99.90;;;;;;5099369;28;20094;-68
2022/12/23 09:51:45;;;;;;;88.35;80.57;;;9.40;99.90;;;;;;5098833;28;20039;-68
2022/12/23 09:54:28;;;;;;;92.85;79.13;;;9.30;99.90;;;;;;5098855;28;20412;-68
2022/12/23 09:57:03;;;;;;;89.88;81.25;;;9.30;99.90;;;;;;5099019;28;20047;-65
2022/12/23 09:59:32;;;;;;;87.78;79.90;;;9.00;99.90;;;;;;5097422;28;20123;-65
2022/12/23 10:02:16;;;;;;;87.50;80.95;;;9.10;99.90;;;;;;5098906;28;20040;-66
2022/12/23 10:05:04;;;;;;;81.00;74.07;;;9.00;99.90;;;;;;5098836;28;20067;-65
2022/12/23 10:07:38;;;;;;;90.78;79.80;;;9.00;99.90;;;;;;5098722;28;20032;-66
2022/12/23 10:10:13;;;;;;;89.32;81.03;;;9.00;99.90;;;;;;5097832;28;20040;-65
2022/12/23 10:12:43;;;;;;;85.80;79.70;;;9.00;99.90;;;;;;5098411;28;20043;-65
2022/12/23 10:15:24;;;;;;;90.38;80.63;;;9.10;99.90;;;;;;5098775;28;20044;-65
2022/12/23 10:17:54;;;;;;;92.00;83.00;;;9.00;99.90;;;;;;5098473;28;20032;-65
2022/12/23 10:20:40;;;;;;;85.18;78.72;;;8.90;99.90;;;;;;5098319;28;20048;-65
2022/12/23 10:23:14;;;;;;;84.27;78.33;;;8.90;99.90;;;;;;5097114;28;20432;-66
2022/12/23 10:25:47;;;;;;;102.60;79.68;;;9.10;99.90;;;;;;5098148;28;20446;-67
2022/12/23 10:28:13;;;;;;;88.88;82.50;;;9.10;99.90;;;;;;5097153;28;20051;-68
2022/12/23 10:30:42;;;;;;;91.28;83.32;;;9.00;99.90;;;;;;5097748;28;20040;-66
2022/12/23 10:33:20;;;;;;;91.15;84.60;;;9.20;99.90;;;;;;5097845;28;20044;-67
2022/12/23 10:36:27;;;;;;;93.63;85.53;;;9.30;99.90;;;;;;5098217;28;20090;-65
2022/12/23 10:39:04;;;;;;;89.65;83.25;;;9.40;99.90;;;;;;5063545;28;20332;-66
2022/12/23 10:41:38;;;;;;;83.65;77.57;;;9.30;99.90;;;;;;5098088;28;20088;-64
2022/12/23 10:44:15;;;;;;;92.60;85.03;;;9.30;99.90;;;;;;5079830;28;20087;-65
2022/12/23 10:46:58;;;;;;;88.60;82.47;;;9.50;99.90;;;;;;5097829;28;20043;-64
2022/12/23 10:49:32;;;;;;;109.60;86.68;;;9.60;99.90;;;;;;5098007;28;20051;-64
2022/12/23 10:52:11;;;;;;;94.00;84.30;;;9.80;99.90;;;;;;5097900;28;20050;-64
2022/12/23 10:54:39;;;;;;;90.85;83.63;;;9.80;99.90;;;;;;5098174;28;20047;-65
2022/12/23 10:57:05;;;;;;;90.30;82.45;;;9.90;99.90;;;;;;5097927;28;20145;-66
2022/12/23 10:59:33;;;;;;;83.78;78.43;;;9.80;99.90;;;;;;5097386;28;20100;-66
2022/12/23 11:02:11;;;;;;;88.15;81.90;;;9.90;99.90;;;;;;5079598;28;20044;-66
2022/12/23 11:04:44;;;;;;;87.97;80.82;;;9.90;99.90;;;;;;5097411;28;20044;-66
2022/12/23 11:07:21;;;;;;;89.55;82.90;;;9.80;99.90;;;;;;5096776;28;20043;-65
2022/12/23 11:09:57;;;;;;;91.70;85.18;;;9.90;99.90;;;;;;5096651;28;20097;-65
2022/12/23 11:12:46;;;;;;;94.95;85.82;;;9.90;99.90;;;;;;5096496;28;20044;-65
2022/12/23 11:15:32;;;;;;;91.18;84.07;;;10.00;99.90;;;;;;5096323;28;20048;-66
2022/12/23 11:18:11;;;;;;;94.50;87.67;;;10.00;99.90;;;;;;5097450;28;20310;-66
2022/12/23 11:20:41;;;;;;;90.63;83.93;;;10.00;99.90;;;;;;5097549;28;20047;-66
2022/12/23 11:23:27;;;;;;;95.72;88.80;;;10.00;99.90;;;;;;5063078;28;20040;-65
2022/12/23 11:26:02;;;;;;;100.10;91.57;;;10.10;99.90;;;;;;5079056;28;20091;-66
2022/12/23 11:28:29;;;;;;;94.50;87.30;;;10.10;99.90;;;;;;5096255;28;20387;-65
2022/12/23 11:31:10;;;;;;;97.50;90.35;;;10.00;99.90;;;;;;5095912;28;20329;-65
2022/12/23 11:33:44;;;;;;;104.72;93.38;;;10.00;99.90;;;;;;5096066;28;20047;-66
2022/12/23 11:36:12;;;;;;;103.13;92.30;;;10.10;99.90;;;;;;5096931;28;20040;-66
2022/12/23 11:39:10;;;;;;;96.03;88.43;;;10.00;99.90;;;;;;5096908;28;20043;-65
2022/12/23 11:41:47;;;;;;;102.82;93.72;;;10.10;99.90;;;;;;5088865;28;20043;-65
2022/12/23 11:44:18;;;;;;;96.93;88.82;;;10.10;99.90;;;;;;5096993;28;20093;-65
2022/12/23 11:46:44;;;;;;;105.10;94.88;;;10.20;99.90;;;;;;5096945;28;20042;-64
2022/12/23 11:49:25;;;;;;;97.65;90.38;;;10.20;99.90;;;;;;5096672;28;20106;-65
2022/12/23 11:52:13;;;;;;;99.10;91.60;;;10.10;99.90;;;;;;5096007;28;20119;-65
2022/12/23 11:54:39;;;;;;;100.60;92.28;;;10.00;99.90;;;;;;5097158;28;20046;-65
2022/12/23 11:57:22;;;;;;;98.68;88.57;;;10.10;99.90;;;;;;5096556;28;20107;-66
2022/12/23 11:59:54;;;;;;;96.70;89.20;;;10.10;99.90;;;;;;5096631;28;20040;-65
2022/12/23 12:02:38;;;;;;;102.63;93.53;;;10.10;99.90;;;;;;5096582;28;20040;-65
2022/12/23 12:05:27;;;;;;;98.93;91.35;;;10.10;99.90;;;;;;5096930;28;20085;-64
2022/12/23 12:07:59;;;;;;;99.53;92.03;;;10.10;99.90;;;;;;5096791;28;20032;-65
2022/12/23 12:10:28;;;;;;;98.82;91.55;;;10.10;99.90;;;;;;5096728;28;20028;-64
2022/12/23 12:13:00;;;;;;;97.00;89.07;;;10.10;99.90;;;;;;5096781;28;20035;-64
2022/12/23 12:15:35;;;;;;;99.88;92.78;;;10.00;99.90;;;;;;5096760;28;20036;-64
2022/12/23 12:18:05;;;;;;;102.82;95.30;;;10.00;99.90;;;;;;5095270;28;20068;-64
2022/12/23 12:20:42;;;;;;;98.97;91.00;;;10.10;99.90;;;;;;5095502;28;20051;-64
2022/12/23 12:23:17;;;;;;;100.45;93.55;;;10.10;99.90;;;;;;5095325;28;20082;-64
2022/12/23 12:25:50;;;;;;;102.70;95.47;;;10.10;99.90;;;;;;5096209;28;20048;-64
2022/12/23 12:28:26;;;;;;;103.90;95.78;;;10.10;99.90;;;;;;5096280;28;20333;-66
2022/12/23 12:30:58;;;;;;;;;;;10.20;99.90;;;;;;5096880;28;20032;-66
2022/12/23 12:33:32;;;;;;;103.95;95.70;;;10.20;99.90;;;;;;5129608;28;19923;-65
2022/12/23 12:36:06;;;;;;;104.20;96.20;;;10.20;99.90;;;;;;5096239;28;20413;-66
2022/12/23 12:38:34;;;;;;;99.10;91.70;;;10.00;99.90;;;;;;5096583;28;20048;-66
2022/12/23 12:41:20;;;;;;;106.85;98.30;;;10.00;99.90;;;;;;5096332;28;20040;-66
2022/12/23 12:43:51;;;;;;;105.28;96.50;;;10.00;99.90;;;;;;5096431;28;20086;-65
2022/12/23 12:46:54;;;;;;;108.20;98.80;;;10.00;99.90;;;;;;5095158;28;20048;-65
2022/12/23 12:49:34;;;;;;;106.38;96.63;;;10.10;99.90;;;;;;5054099;28;20037;-66
2022/12/23 12:52:14;;;;;;;101.93;94.47;;;10.20;99.90;;;;;;5089768;28;20048;-67
2022/12/23 12:54:46;;;;;;;103.25;94.75;;;10.20;99.90;;;;;;5095427;28;20185;-65
2022/12/23 12:57:16;;;;;;;102.28;94.93;;;10.20;99.90;;;;;;5095070;28;20048;-65
2022/12/23 12:59:43;;;;;;;103.22;95.35;;;10.30;99.90;;;;;;5094608;28;20062;-65
2022/12/23 13:02:21;;;;;;;104.47;95.93;;;10.20;99.90;;;;;;5099909;28;20047;-65
2022/12/23 13:05:01;;;;;;;101.88;94.13;;;10.30;99.90;;;;;;5081951;28;20044;-65
2022/12/23 13:07:39;;;;;;;99.55;92.57;;;10.20;99.90;;;;;;5099912;28;20055;-64
2022/12/23 13:10:34;;;;;;;105.45;97.82;;;10.30;99.90;;;;;;5099659;28;20423;-70